sensor_id;sensor_type;location;lat;lon;timestamp;P1;durP1;ratioP1;P2;durP2;ratioP2
16294;SDS011;8255;49.560;8.244;2022-12-07T00:01:04;5.97;;;5.03;;
16294;SDS011;8255;49.560;8.244;2022-12-07T00:03:31;7.20;;;5.57;;
16294;SDS011;8255;49.560;8.244;2022-12-07T00:05:58;6.53;;;5.73;;
16294;SDS011;8255;49.560;8.244;2022-12-07T00:08:24;7.80;;;6.17;;
16294;SDS011;8255;49.560;8.244;2022-12-07T00:10:50;8.00;;;6.07;;
16294;SDS011;8255;49.560;8.244;2022-12-07T00:13:17;6.17;;;5.53;;
16294;SDS011;8255;49.560;8.244;2022-12-07T00:15:43;6.27;;;5.60;;
16294;SDS011;8255;49.560;8.244;2022-12-07T00:18:09;7.50;;;6.00;;
16294;SDS011;8255;49.560;8.244;2022-12-07T00:20:37;6.13;;;5.50;;
16294;SDS011;8255;49.560;8.244;2022-12-07T00:23:03;6.90;;;6.13;;
16294;SDS011;8255;49.560;8.244;2022-12-07T00:25:30;7.37;;;6.17;;
16294;SDS011;8255;49.560;8.244;2022-12-07T00:27:56;6.90;;;6.13;;
16294;SDS011;8255;49.560;8.244;2022-12-07T00:30:23;7.43;;;6.07;;
16294;SDS011;8255;49.560;8.244;2022-12-07T00:32:49;6.37;;;5.70;;
16294;SDS011;8255;49.560;8.244;2022-12-07T00:35:16;7.47;;;6.30;;
16294;SDS011;8255;49.560;8.244;2022-12-07T00:37:43;9.20;;;7.13;;
16294;SDS011;8255;49.560;8.244;2022-12-07T00:40:10;6.67;;;6.07;;
16294;SDS011;8255;49.560;8.244;2022-12-07T00:42:36;7.43;;;6.37;;
16294;SDS011;8255;49.560;8.244;2022-12-07T00:45:03;7.10;;;5.90;;
16294;SDS011;8255;49.560;8.244;2022-12-07T00:47:29;6.60;;;5.70;;
16294;SDS011;8255;49.560;8.244;2022-12-07T00:49:56;6.33;;;5.63;;
16294;SDS011;8255;49.560;8.244;2022-12-07T00:52:22;6.73;;;6.03;;
16294;SDS011;8255;49.560;8.244;2022-12-07T00:54:49;6.97;;;5.90;;
16294;SDS011;8255;49.560;8.244;2022-12-07T00:57:16;6.90;;;5.80;;
16294;SDS011;8255;49.560;8.244;2022-12-07T00:59:42;7.20;;;5.97;;
16294;SDS011;8255;49.560;8.244;2022-12-07T01:02:08;6.47;;;5.70;;
16294;SDS011;8255;49.560;8.244;2022-12-07T01:04:35;8.03;;;6.53;;
16294;SDS011;8255;49.560;8.244;2022-12-07T01:07:01;7.23;;;6.00;;
16294;SDS011;8255;49.560;8.244;2022-12-07T01:09:27;7.37;;;6.33;;
16294;SDS011;8255;49.560;8.244;2022-12-07T01:11:55;6.27;;;5.60;;
16294;SDS011;8255;49.560;8.244;2022-12-07T01:14:21;6.23;;;5.17;;
16294;SDS011;8255;49.560;8.244;2022-12-07T01:16:48;6.57;;;5.60;;
16294;SDS011;8255;49.560;8.244;2022-12-07T01:19:14;6.03;;;5.40;;
16294;SDS011;8255;49.560;8.244;2022-12-07T01:21:40;8.33;;;6.00;;
16294;SDS011;8255;49.560;8.244;2022-12-07T01:24:08;6.70;;;4.93;;
16294;SDS011;8255;49.560;8.244;2022-12-07T01:26:35;6.23;;;5.33;;
16294;SDS011;8255;49.560;8.244;2022-12-07T01:29:02;5.83;;;5.20;;
16294;SDS011;8255;49.560;8.244;2022-12-07T01:31:29;8.17;;;6.43;;
16294;SDS011;8255;49.560;8.244;2022-12-07T01:33:57;7.17;;;6.10;;
16294;SDS011;8255;49.560;8.244;2022-12-07T01:36:23;7.30;;;5.87;;
16294;SDS011;8255;49.560;8.244;2022-12-07T01:38:51;6.93;;;5.50;;
16294;SDS011;8255;49.560;8.244;2022-12-07T01:41:17;6.43;;;5.80;;
16294;SDS011;8255;49.560;8.244;2022-12-07T01:46:27;6.10;;;5.50;;
16294;SDS011;8255;49.560;8.244;2022-12-07T01:48:53;6.53;;;5.73;;
16294;SDS011;8255;49.560;8.244;2022-12-07T01:51:19;6.07;;;5.40;;
16294;SDS011;8255;49.560;8.244;2022-12-07T01:53:46;7.37;;;6.13;;
16294;SDS011;8255;49.560;8.244;2022-12-07T01:56:14;8.77;;;6.10;;
16294;SDS011;8255;49.560;8.244;2022-12-07T01:58:43;6.93;;;5.80;;
16294;SDS011;8255;49.560;8.244;2022-12-07T02:01:09;6.80;;;5.60;;
16294;SDS011;8255;49.560;8.244;2022-12-07T02:03:37;5.70;;;5.20;;
16294;SDS011;8255;49.560;8.244;2022-12-07T02:06:05;5.60;;;5.03;;
16294;SDS011;8255;49.560;8.244;2022-12-07T02:08:32;5.53;;;4.90;;
16294;SDS011;8255;49.560;8.244;2022-12-07T02:10:59;6.00;;;5.40;;
16294;SDS011;8255;49.560;8.244;2022-12-07T02:13:27;5.53;;;4.90;;
16294;SDS011;8255;49.560;8.244;2022-12-07T02:15:59;6.23;;;5.23;;
16294;SDS011;8255;49.560;8.244;2022-12-07T02:18:31;6.73;;;5.27;;
16294;SDS011;8255;49.560;8.244;2022-12-07T02:21:05;5.70;;;5.20;;
16294;SDS011;8255;49.560;8.244;2022-12-07T02:23:40;5.60;;;4.93;;
16294;SDS011;8255;49.560;8.244;2022-12-07T02:29:03;5.30;;;4.80;;
16294;SDS011;8255;49.560;8.244;2022-12-07T02:31:34;7.00;;;5.87;;
16294;SDS011;8255;49.560;8.244;2022-12-07T02:34:03;5.60;;;5.07;;
16294;SDS011;8255;49.560;8.244;2022-12-07T02:36:32;5.67;;;5.03;;
16294;SDS011;8255;49.560;8.244;2022-12-07T02:39:03;6.47;;;4.90;;
16294;SDS011;8255;49.560;8.244;2022-12-07T02:41:33;6.00;;;4.80;;
16294;SDS011;8255;49.560;8.244;2022-12-07T02:44:02;5.30;;;4.80;;
16294;SDS011;8255;49.560;8.244;2022-12-07T02:46:30;6.40;;;4.87;;
16294;SDS011;8255;49.560;8.244;2022-12-07T02:48:58;6.57;;;5.10;;
16294;SDS011;8255;49.560;8.244;2022-12-07T02:51:25;6.73;;;5.83;;
16294;SDS011;8255;49.560;8.244;2022-12-07T02:53:52;5.87;;;5.33;;
16294;SDS011;8255;49.560;8.244;2022-12-07T02:56:20;6.30;;;5.70;;
16294;SDS011;8255;49.560;8.244;2022-12-07T02:58:54;5.57;;;5.07;;
16294;SDS011;8255;49.560;8.244;2022-12-07T03:01:28;6.27;;;5.60;;
16294;SDS011;8255;49.560;8.244;2022-12-07T03:03:58;5.47;;;4.97;;
16294;SDS011;8255;49.560;8.244;2022-12-07T03:06:30;6.10;;;5.50;;
16294;SDS011;8255;49.560;8.244;2022-12-07T03:09:05;7.23;;;5.40;;
16294;SDS011;8255;49.560;8.244;2022-12-07T03:11:36;5.70;;;5.10;;
16294;SDS011;8255;49.560;8.244;2022-12-07T03:14:08;5.97;;;5.30;;
16294;SDS011;8255;49.560;8.244;2022-12-07T03:16:42;5.47;;;4.97;;
16294;SDS011;8255;49.560;8.244;2022-12-07T03:19:10;6.10;;;5.20;;
16294;SDS011;8255;49.560;8.244;2022-12-07T03:21:39;5.87;;;5.00;;
16294;SDS011;8255;49.560;8.244;2022-12-07T03:24:07;6.17;;;5.03;;
16294;SDS011;8255;49.560;8.244;2022-12-07T03:26:35;5.47;;;4.97;;
16294;SDS011;8255;49.560;8.244;2022-12-07T03:29:03;5.47;;;4.97;;
16294;SDS011;8255;49.560;8.244;2022-12-07T03:31:31;5.93;;;5.00;;
16294;SDS011;8255;49.560;8.244;2022-12-07T03:34:01;5.57;;;4.90;;
16294;SDS011;8255;49.560;8.244;2022-12-07T03:36:34;5.10;;;4.60;;
16294;SDS011;8255;49.560;8.244;2022-12-07T03:39:03;4.67;;;4.27;;
16294;SDS011;8255;49.560;8.244;2022-12-07T03:41:31;5.53;;;4.90;;
16294;SDS011;8255;49.560;8.244;2022-12-07T03:43:58;5.93;;;4.73;;
16294;SDS011;8255;49.560;8.244;2022-12-07T03:46:27;4.70;;;4.30;;
16294;SDS011;8255;49.560;8.244;2022-12-07T03:48:56;5.10;;;4.60;;
16294;SDS011;8255;49.560;8.244;2022-12-07T03:51:28;4.70;;;4.30;;
16294;SDS011;8255;49.560;8.244;2022-12-07T03:53:57;5.27;;;4.77;;
16294;SDS011;8255;49.560;8.244;2022-12-07T03:56:25;7.97;;;4.80;;
16294;SDS011;8255;49.560;8.244;2022-12-07T03:58:52;12.83;;;5.10;;
16294;SDS011;8255;49.560;8.244;2022-12-07T04:01:19;5.00;;;4.50;;
16294;SDS011;8255;49.560;8.244;2022-12-07T04:03:45;5.20;;;4.47;;
16294;SDS011;8255;49.560;8.244;2022-12-07T04:06:11;5.60;;;4.83;;
16294;SDS011;8255;49.560;8.244;2022-12-07T04:08:39;4.83;;;4.43;;
16294;SDS011;8255;49.560;8.244;2022-12-07T04:11:05;4.50;;;4.10;;
16294;SDS011;8255;49.560;8.244;2022-12-07T04:13:32;4.53;;;4.13;;
16294;SDS011;8255;49.560;8.244;2022-12-07T04:16:19;5.00;;;4.50;;
16294;SDS011;8255;49.560;8.244;2022-12-07T04:18:45;5.30;;;4.77;;
16294;SDS011;8255;49.560;8.244;2022-12-07T04:21:12;6.70;;;4.80;;
16294;SDS011;8255;49.560;8.244;2022-12-07T04:23:40;7.90;;;5.80;;
16294;SDS011;8255;49.560;8.244;2022-12-07T04:26:06;8.37;;;5.53;;
16294;SDS011;8255;49.560;8.244;2022-12-07T04:28:33;7.90;;;5.33;;
16294;SDS011;8255;49.560;8.244;2022-12-07T04:30:59;5.87;;;5.27;;
16294;SDS011;8255;49.560;8.244;2022-12-07T04:33:25;6.63;;;5.47;;
16294;SDS011;8255;49.560;8.244;2022-12-07T04:35:51;6.17;;;5.53;;
16294;SDS011;8255;49.560;8.244;2022-12-07T04:38:18;5.73;;;5.23;;
16294;SDS011;8255;49.560;8.244;2022-12-07T04:40:46;5.47;;;4.80;;
16294;SDS011;8255;49.560;8.244;2022-12-07T04:43:12;6.30;;;5.03;;
16294;SDS011;8255;49.560;8.244;2022-12-07T04:45:38;5.60;;;4.93;;
16294;SDS011;8255;49.560;8.244;2022-12-07T04:48:05;5.87;;;5.20;;
16294;SDS011;8255;49.560;8.244;2022-12-07T04:50:31;7.10;;;5.10;;
16294;SDS011;8255;49.560;8.244;2022-12-07T04:52:58;6.50;;;5.83;;
16294;SDS011;8255;49.560;8.244;2022-12-07T04:55:24;7.37;;;5.20;;
16294;SDS011;8255;49.560;8.244;2022-12-07T04:57:51;9.07;;;5.77;;
16294;SDS011;8255;49.560;8.244;2022-12-07T05:00:18;5.80;;;5.20;;
16294;SDS011;8255;49.560;8.244;2022-12-07T05:02:44;6.80;;;5.43;;
16294;SDS011;8255;49.560;8.244;2022-12-07T05:05:11;6.37;;;5.30;;
16294;SDS011;8255;49.560;8.244;2022-12-07T05:07:37;6.40;;;5.40;;
16294;SDS011;8255;49.560;8.244;2022-12-07T05:10:04;6.83;;;5.43;;
16294;SDS011;8255;49.560;8.244;2022-12-07T05:12:31;6.83;;;5.60;;
16294;SDS011;8255;49.560;8.244;2022-12-07T05:14:59;4.90;;;4.47;;
16294;SDS011;8255;49.560;8.244;2022-12-07T05:17:25;8.03;;;6.27;;
16294;SDS011;8255;49.560;8.244;2022-12-07T05:19:52;6.63;;;5.93;;
16294;SDS011;8255;49.560;8.244;2022-12-07T05:22:18;6.83;;;5.80;;
16294;SDS011;8255;49.560;8.244;2022-12-07T05:24:45;6.10;;;5.50;;
16294;SDS011;8255;49.560;8.244;2022-12-07T05:27:11;5.87;;;5.23;;
16294;SDS011;8255;49.560;8.244;2022-12-07T05:29:37;6.90;;;5.90;;
16294;SDS011;8255;49.560;8.244;2022-12-07T05:32:05;8.83;;;5.83;;
16294;SDS011;8255;49.560;8.244;2022-12-07T05:34:31;7.47;;;6.07;;
16294;SDS011;8255;49.560;8.244;2022-12-07T05:36:58;8.60;;;6.37;;
16294;SDS011;8255;49.560;8.244;2022-12-07T05:39:24;8.07;;;5.43;;
16294;SDS011;8255;49.560;8.244;2022-12-07T05:41:50;7.77;;;6.47;;
16294;SDS011;8255;49.560;8.244;2022-12-07T05:44:34;7.50;;;6.20;;
16294;SDS011;8255;49.560;8.244;2022-12-07T05:47:00;6.93;;;5.90;;
16294;SDS011;8255;49.560;8.244;2022-12-07T05:49:28;7.57;;;6.27;;
16294;SDS011;8255;49.560;8.244;2022-12-07T05:51:55;9.27;;;6.80;;
16294;SDS011;8255;49.560;8.244;2022-12-07T05:54:21;7.43;;;6.63;;
16294;SDS011;8255;49.560;8.244;2022-12-07T05:56:47;7.00;;;6.27;;
16294;SDS011;8255;49.560;8.244;2022-12-07T05:59:14;7.67;;;6.73;;
16294;SDS011;8255;49.560;8.244;2022-12-07T06:01:49;7.63;;;6.67;;
16294;SDS011;8255;49.560;8.244;2022-12-07T06:04:15;7.67;;;6.30;;
16294;SDS011;8255;49.560;8.244;2022-12-07T06:06:43;8.93;;;6.97;;
16294;SDS011;8255;49.560;8.244;2022-12-07T06:09:09;7.73;;;6.20;;
16294;SDS011;8255;49.560;8.244;2022-12-07T06:11:37;7.90;;;7.10;;
16294;SDS011;8255;49.560;8.244;2022-12-07T06:14:20;9.33;;;6.77;;
16294;SDS011;8255;49.560;8.244;2022-12-07T06:16:47;8.77;;;6.80;;
16294;SDS011;8255;49.560;8.244;2022-12-07T06:19:13;9.03;;;6.80;;
16294;SDS011;8255;49.560;8.244;2022-12-07T06:21:39;8.63;;;6.73;;
16294;SDS011;8255;49.560;8.244;2022-12-07T06:24:08;8.20;;;6.73;;
16294;SDS011;8255;49.560;8.244;2022-12-07T06:26:35;8.03;;;7.07;;
16294;SDS011;8255;49.560;8.244;2022-12-07T06:29:01;9.97;;;6.90;;
16294;SDS011;8255;49.560;8.244;2022-12-07T06:31:27;7.73;;;6.47;;
16294;SDS011;8255;49.560;8.244;2022-12-07T06:33:56;12.43;;;7.30;;
16294;SDS011;8255;49.560;8.244;2022-12-07T06:36:23;9.00;;;7.30;;
16294;SDS011;8255;49.560;8.244;2022-12-07T06:38:49;9.30;;;7.00;;
16294;SDS011;8255;49.560;8.244;2022-12-07T06:41:17;7.67;;;6.70;;
16294;SDS011;8255;49.560;8.244;2022-12-07T06:43:43;8.73;;;7.50;;
16294;SDS011;8255;49.560;8.244;2022-12-07T06:46:09;9.90;;;7.70;;
16294;SDS011;8255;49.560;8.244;2022-12-07T06:48:36;7.90;;;6.43;;
16294;SDS011;8255;49.560;8.244;2022-12-07T06:51:02;9.10;;;7.20;;
16294;SDS011;8255;49.560;8.244;2022-12-07T06:53:29;9.40;;;7.23;;
16294;SDS011;8255;49.560;8.244;2022-12-07T06:55:55;8.27;;;6.57;;
16294;SDS011;8255;49.560;8.244;2022-12-07T06:58:23;10.37;;;7.57;;
16294;SDS011;8255;49.560;8.244;2022-12-07T07:00:49;8.83;;;7.30;;
16294;SDS011;8255;49.560;8.244;2022-12-07T07:03:15;8.87;;;7.63;;
16294;SDS011;8255;49.560;8.244;2022-12-07T07:05:42;8.87;;;7.93;;
16294;SDS011;8255;49.560;8.244;2022-12-07T07:08:08;11.37;;;8.03;;
16294;SDS011;8255;49.560;8.244;2022-12-07T07:10:34;10.67;;;8.23;;
16294;SDS011;8255;49.560;8.244;2022-12-07T07:13:01;10.00;;;8.03;;
16294;SDS011;8255;49.560;8.244;2022-12-07T07:15:29;9.37;;;7.73;;
16294;SDS011;8255;49.560;8.244;2022-12-07T07:17:55;9.27;;;7.83;;
16294;SDS011;8255;49.560;8.244;2022-12-07T07:20:21;10.07;;;8.03;;
16294;SDS011;8255;49.560;8.244;2022-12-07T07:22:48;9.60;;;7.87;;
16294;SDS011;8255;49.560;8.244;2022-12-07T07:25:14;9.43;;;8.43;;
16294;SDS011;8255;49.560;8.244;2022-12-07T07:27:41;12.90;;;8.47;;
16294;SDS011;8255;49.560;8.244;2022-12-07T07:30:08;10.93;;;8.57;;
16294;SDS011;8255;49.560;8.244;2022-12-07T07:32:35;11.00;;;8.20;;
16294;SDS011;8255;49.560;8.244;2022-12-07T07:35:02;9.90;;;8.67;;
16294;SDS011;8255;49.560;8.244;2022-12-07T07:37:28;10.67;;;7.83;;
16294;SDS011;8255;49.560;8.244;2022-12-07T07:39:55;12.87;;;8.33;;
16294;SDS011;8255;49.560;8.244;2022-12-07T07:42:21;10.38;;;9.32;;
16294;SDS011;8255;49.560;8.244;2022-12-07T07:44:47;10.00;;;8.53;;
16294;SDS011;8255;49.560;8.244;2022-12-07T07:47:14;10.73;;;8.40;;
16294;SDS011;8255;49.560;8.244;2022-12-07T07:49:41;10.60;;;8.37;;
16294;SDS011;8255;49.560;8.244;2022-12-07T07:52:08;11.97;;;8.33;;
16294;SDS011;8255;49.560;8.244;2022-12-07T07:54:34;13.77;;;10.50;;
16294;SDS011;8255;49.560;8.244;2022-12-07T07:57:00;10.03;;;8.77;;
16294;SDS011;8255;49.560;8.244;2022-12-07T07:59:27;9.57;;;8.00;;
16294;SDS011;8255;49.560;8.244;2022-12-07T08:01:53;10.80;;;8.37;;
16294;SDS011;8255;49.560;8.244;2022-12-07T08:04:19;9.70;;;8.07;;
16294;SDS011;8255;49.560;8.244;2022-12-07T08:06:47;10.63;;;8.67;;
16294;SDS011;8255;49.560;8.244;2022-12-07T08:09:13;11.47;;;8.03;;
16294;SDS011;8255;49.560;8.244;2022-12-07T08:11:40;12.47;;;8.73;;
16294;SDS011;8255;49.560;8.244;2022-12-07T08:14:06;10.53;;;8.00;;
16294;SDS011;8255;49.560;8.244;2022-12-07T08:16:33;10.77;;;8.53;;
16294;SDS011;8255;49.560;8.244;2022-12-07T08:18:59;10.90;;;8.47;;
16294;SDS011;8255;49.560;8.244;2022-12-07T08:21:25;9.47;;;8.30;;
16294;SDS011;8255;49.560;8.244;2022-12-07T08:23:53;10.93;;;8.10;;
16294;SDS011;8255;49.560;8.244;2022-12-07T08:26:19;10.97;;;8.00;;
16294;SDS011;8255;49.560;8.244;2022-12-07T08:28:46;9.57;;;7.60;;
16294;SDS011;8255;49.560;8.244;2022-12-07T08:31:14;8.77;;;7.67;;
16294;SDS011;8255;49.560;8.244;2022-12-07T08:33:41;8.87;;;7.53;;
16294;SDS011;8255;49.560;8.244;2022-12-07T08:36:08;10.93;;;8.23;;
16294;SDS011;8255;49.560;8.244;2022-12-07T08:38:35;9.97;;;7.90;;
16294;SDS011;8255;49.560;8.244;2022-12-07T08:41:06;11.27;;;8.17;;
16294;SDS011;8255;49.560;8.244;2022-12-07T08:43:32;9.20;;;7.30;;
16294;SDS011;8255;49.560;8.244;2022-12-07T08:46:03;9.93;;;7.93;;
16294;SDS011;8255;49.560;8.244;2022-12-07T08:48:30;10.63;;;8.27;;
16294;SDS011;8255;49.560;8.244;2022-12-07T08:50:57;10.97;;;7.83;;
16294;SDS011;8255;49.560;8.244;2022-12-07T08:53:23;9.07;;;7.37;;
16294;SDS011;8255;49.560;8.244;2022-12-07T08:55:50;8.97;;;7.33;;
16294;SDS011;8255;49.560;8.244;2022-12-07T08:58:17;7.97;;;7.00;;
16294;SDS011;8255;49.560;8.244;2022-12-07T09:00:44;9.83;;;7.63;;
16294;SDS011;8255;49.560;8.244;2022-12-07T09:03:10;8.90;;;7.50;;
16294;SDS011;8255;49.560;8.244;2022-12-07T09:05:37;7.87;;;7.07;;
16294;SDS011;8255;49.560;8.244;2022-12-07T09:08:03;8.13;;;7.33;;
16294;SDS011;8255;49.560;8.244;2022-12-07T09:10:29;8.80;;;7.77;;
16294;SDS011;8255;49.560;8.244;2022-12-07T09:12:56;9.40;;;7.37;;
16294;SDS011;8255;49.560;8.244;2022-12-07T09:15:27;10.00;;;7.97;;
16294;SDS011;8255;49.560;8.244;2022-12-07T09:17:53;8.30;;;7.40;;
16294;SDS011;8255;49.560;8.244;2022-12-07T09:20:20;8.27;;;7.20;;
16294;SDS011;8255;49.560;8.244;2022-12-07T09:22:46;8.53;;;7.47;;
16294;SDS011;8255;49.560;8.244;2022-12-07T09:25:13;8.53;;;7.33;;
16294;SDS011;8255;49.560;8.244;2022-12-07T09:27:39;7.87;;;7.00;;
16294;SDS011;8255;49.560;8.244;2022-12-07T09:30:06;8.70;;;7.00;;
16294;SDS011;8255;49.560;8.244;2022-12-07T09:32:34;8.70;;;7.03;;
16294;SDS011;8255;49.560;8.244;2022-12-07T09:35:00;11.40;;;7.70;;
16294;SDS011;8255;49.560;8.244;2022-12-07T09:37:27;8.30;;;7.50;;
16294;SDS011;8255;49.560;8.244;2022-12-07T09:39:53;9.83;;;7.70;;
16294;SDS011;8255;49.560;8.244;2022-12-07T09:42:25;10.77;;;7.40;;
16294;SDS011;8255;49.560;8.244;2022-12-07T09:44:52;9.07;;;7.40;;
16294;SDS011;8255;49.560;8.244;2022-12-07T09:47:18;7.10;;;6.40;;
16294;SDS011;8255;49.560;8.244;2022-12-07T09:49:46;11.77;;;7.60;;
16294;SDS011;8255;49.560;8.244;2022-12-07T09:52:19;9.00;;;7.63;;
16294;SDS011;8255;49.560;8.244;2022-12-07T09:54:47;8.17;;;6.73;;
16294;SDS011;8255;49.560;8.244;2022-12-07T09:57:14;8.33;;;6.77;;
16294;SDS011;8255;49.560;8.244;2022-12-07T09:59:40;7.70;;;6.70;;
16294;SDS011;8255;49.560;8.244;2022-12-07T10:02:21;9.27;;;7.00;;
16294;SDS011;8255;49.560;8.244;2022-12-07T10:04:50;6.90;;;6.20;;
16294;SDS011;8255;49.560;8.244;2022-12-07T10:07:17;9.07;;;6.50;;
16294;SDS011;8255;49.560;8.244;2022-12-07T10:09:44;8.17;;;6.80;;
16294;SDS011;8255;49.560;8.244;2022-12-07T10:12:11;7.13;;;6.43;;
16294;SDS011;8255;49.560;8.244;2022-12-07T10:14:39;8.90;;;7.97;;
16294;SDS011;8255;49.560;8.244;2022-12-07T10:19:47;16.70;;;10.00;;
16294;SDS011;8255;49.560;8.244;2022-12-07T10:22:15;7.70;;;6.93;;
16294;SDS011;8255;49.560;8.244;2022-12-07T10:24:42;7.38;;;6.68;;
16294;SDS011;8255;49.560;8.244;2022-12-07T10:27:17;6.23;;;5.63;;
16294;SDS011;8255;49.560;8.244;2022-12-07T10:29:46;7.27;;;5.50;;
16294;SDS011;8255;49.560;8.244;2022-12-07T10:32:25;6.47;;;5.37;;
16294;SDS011;8255;49.560;8.244;2022-12-07T10:34:59;4.90;;;4.40;;
16294;SDS011;8255;49.560;8.244;2022-12-07T10:37:45;5.10;;;4.60;;
16294;SDS011;8255;49.560;8.244;2022-12-07T10:40:24;6.50;;;4.90;;
16294;SDS011;8255;49.560;8.244;2022-12-07T10:43:00;6.53;;;5.93;;
16294;SDS011;8255;49.560;8.244;2022-12-07T10:45:26;5.87;;;5.27;;
16294;SDS011;8255;49.560;8.244;2022-12-07T10:47:54;8.87;;;6.23;;
16294;SDS011;8255;49.560;8.244;2022-12-07T10:50:29;6.23;;;5.53;;
16294;SDS011;8255;49.560;8.244;2022-12-07T10:53:07;5.28;;;4.72;;
16294;SDS011;8255;49.560;8.244;2022-12-07T10:55:40;5.67;;;5.07;;
16294;SDS011;8255;49.560;8.244;2022-12-07T10:58:21;4.93;;;4.45;;
16294;SDS011;8255;49.560;8.244;2022-12-07T11:00:52;5.13;;;4.30;;
16294;SDS011;8255;49.560;8.244;2022-12-07T11:03:23;5.27;;;4.13;;
16294;SDS011;8255;49.560;8.244;2022-12-07T11:05:54;4.17;;;3.77;;
16294;SDS011;8255;49.560;8.244;2022-12-07T11:08:35;4.47;;;3.40;;
16294;SDS011;8255;49.560;8.244;2022-12-07T11:11:06;3.70;;;3.33;;
16294;SDS011;8255;49.560;8.244;2022-12-07T11:13:37;4.50;;;3.50;;
16294;SDS011;8255;49.560;8.244;2022-12-07T11:16:16;3.60;;;3.30;;
16294;SDS011;8255;49.560;8.244;2022-12-07T11:18:46;3.40;;;3.10;;
16294;SDS011;8255;49.560;8.244;2022-12-07T11:21:17;3.13;;;2.83;;
16294;SDS011;8255;49.560;8.244;2022-12-07T11:23:48;5.00;;;3.50;;
16294;SDS011;8255;49.560;8.244;2022-12-07T11:26:18;3.95;;;3.47;;
16294;SDS011;8255;49.560;8.244;2022-12-07T11:28:55;3.97;;;3.53;;
16294;SDS011;8255;49.560;8.244;2022-12-07T11:31:28;3.83;;;3.17;;
16294;SDS011;8255;49.560;8.244;2022-12-07T11:33:57;3.28;;;2.78;;
16294;SDS011;8255;49.560;8.244;2022-12-07T11:36:31;3.13;;;2.60;;
16294;SDS011;8255;49.560;8.244;2022-12-07T11:39:00;3.42;;;3.05;;
16294;SDS011;8255;49.560;8.244;2022-12-07T11:41:28;3.58;;;3.28;;
16294;SDS011;8255;49.560;8.244;2022-12-07T11:43:56;4.57;;;3.97;;
16294;SDS011;8255;49.560;8.244;2022-12-07T11:46:25;4.28;;;3.88;;
16294;SDS011;8255;49.560;8.244;2022-12-07T11:48:55;3.88;;;3.58;;
16294;SDS011;8255;49.560;8.244;2022-12-07T11:51:24;4.72;;;3.83;;
16294;SDS011;8255;49.560;8.244;2022-12-07T11:53:52;5.18;;;3.53;;
16294;SDS011;8255;49.560;8.244;2022-12-07T11:56:22;4.30;;;3.55;;
16294;SDS011;8255;49.560;8.244;2022-12-07T11:58:49;3.60;;;3.00;;
16294;SDS011;8255;49.560;8.244;2022-12-07T12:01:33;3.63;;;3.33;;
16294;SDS011;8255;49.560;8.244;2022-12-07T12:04:02;4.00;;;3.70;;
16294;SDS011;8255;49.560;8.244;2022-12-07T12:06:31;6.95;;;3.78;;
16294;SDS011;8255;49.560;8.244;2022-12-07T12:09:01;4.80;;;3.88;;
16294;SDS011;8255;49.560;8.244;2022-12-07T12:11:35;5.47;;;3.55;;
16294;SDS011;8255;49.560;8.244;2022-12-07T12:14:09;5.57;;;3.38;;
16294;SDS011;8255;49.560;8.244;2022-12-07T12:16:46;4.90;;;3.55;;
16294;SDS011;8255;49.560;8.244;2022-12-07T12:19:18;3.10;;;2.90;;
16294;SDS011;8255;49.560;8.244;2022-12-07T12:21:46;2.95;;;2.80;;
16294;SDS011;8255;49.560;8.244;2022-12-07T12:24:14;5.47;;;3.17;;
16294;SDS011;8255;49.560;8.244;2022-12-07T12:26:48;5.10;;;2.70;;
16294;SDS011;8255;49.560;8.244;2022-12-07T12:29:19;2.77;;;2.50;;
16294;SDS011;8255;49.560;8.244;2022-12-07T12:31:48;4.67;;;3.03;;
16294;SDS011;8255;49.560;8.244;2022-12-07T12:34:32;3.30;;;3.10;;
16294;SDS011;8255;49.560;8.244;2022-12-07T12:36:58;3.63;;;3.23;;
16294;SDS011;8255;49.560;8.244;2022-12-07T12:39:25;3.30;;;3.00;;
16294;SDS011;8255;49.560;8.244;2022-12-07T12:41:59;3.05;;;2.85;;
16294;SDS011;8255;49.560;8.244;2022-12-07T12:50:15;6.27;;;4.10;;
16294;SDS011;8255;49.560;8.244;2022-12-07T13:03:38;4.53;;;3.13;;
16294;SDS011;8255;49.560;8.244;2022-12-07T13:06:17;3.80;;;3.50;;
16294;SDS011;8255;49.560;8.244;2022-12-07T13:08:43;3.60;;;3.30;;
16294;SDS011;8255;49.560;8.244;2022-12-07T13:11:17;4.68;;;3.25;;
16294;SDS011;8255;49.560;8.244;2022-12-07T13:13:44;3.20;;;2.90;;
16294;SDS011;8255;49.560;8.244;2022-12-07T13:21:56;4.97;;;3.15;;
16294;SDS011;8255;49.560;8.244;2022-12-07T13:24:22;3.60;;;3.35;;
16294;SDS011;8255;49.560;8.244;2022-12-07T13:26:51;3.97;;;3.57;;
16294;SDS011;8255;49.560;8.244;2022-12-07T13:29:21;3.72;;;3.42;;
16294;SDS011;8255;49.560;8.244;2022-12-07T13:31:48;3.83;;;3.45;;
16294;SDS011;8255;49.560;8.244;2022-12-07T13:34:28;3.40;;;3.20;;
16294;SDS011;8255;49.560;8.244;2022-12-07T13:36:56;4.20;;;3.13;;
16294;SDS011;8255;49.560;8.244;2022-12-07T13:39:23;4.55;;;3.05;;
16294;SDS011;8255;49.560;8.244;2022-12-07T13:41:51;3.53;;;3.33;;
16294;SDS011;8255;49.560;8.244;2022-12-07T13:44:18;3.78;;;3.22;;
16294;SDS011;8255;49.560;8.244;2022-12-07T13:46:47;3.00;;;2.80;;
16294;SDS011;8255;49.560;8.244;2022-12-07T13:49:16;2.77;;;2.57;;
16294;SDS011;8255;49.560;8.244;2022-12-07T13:51:42;4.80;;;2.70;;
16294;SDS011;8255;49.560;8.244;2022-12-07T13:54:11;4.63;;;3.00;;
16294;SDS011;8255;49.560;8.244;2022-12-07T13:56:38;3.72;;;3.40;;
16294;SDS011;8255;49.560;8.244;2022-12-07T13:59:05;3.30;;;3.00;;
16294;SDS011;8255;49.560;8.244;2022-12-07T14:01:32;3.80;;;3.40;;
16294;SDS011;8255;49.560;8.244;2022-12-07T14:06:46;6.22;;;4.10;;
16294;SDS011;8255;49.560;8.244;2022-12-07T14:09:20;3.45;;;3.05;;
16294;SDS011;8255;49.560;8.244;2022-12-07T14:11:48;5.53;;;3.95;;
16294;SDS011;8255;49.560;8.244;2022-12-07T14:14:16;4.15;;;3.33;;
16294;SDS011;8255;49.560;8.244;2022-12-07T14:16:54;3.40;;;3.10;;
16294;SDS011;8255;49.560;8.244;2022-12-07T14:22:06;3.40;;;3.20;;
16294;SDS011;8255;49.560;8.244;2022-12-07T14:24:35;3.70;;;3.28;;
16294;SDS011;8255;49.560;8.244;2022-12-07T14:27:15;4.15;;;2.97;;
16294;SDS011;8255;49.560;8.244;2022-12-07T14:29:42;5.53;;;3.30;;
16294;SDS011;8255;49.560;8.244;2022-12-07T14:32:19;6.38;;;3.03;;
16294;SDS011;8255;49.560;8.244;2022-12-07T14:34:52;3.22;;;2.88;;
16294;SDS011;8255;49.560;8.244;2022-12-07T14:37:19;4.05;;;3.13;;
16294;SDS011;8255;49.560;8.244;2022-12-07T14:39:46;5.03;;;3.47;;
16294;SDS011;8255;49.560;8.244;2022-12-07T14:42:13;3.47;;;3.17;;
16294;SDS011;8255;49.560;8.244;2022-12-07T14:44:39;3.88;;;3.50;;
16294;SDS011;8255;49.560;8.244;2022-12-07T14:47:07;5.70;;;3.40;;
16294;SDS011;8255;49.560;8.244;2022-12-07T14:49:34;4.47;;;3.50;;
16294;SDS011;8255;49.560;8.244;2022-12-07T14:52:00;4.13;;;3.78;;
16294;SDS011;8255;49.560;8.244;2022-12-07T14:54:27;4.73;;;3.60;;
16294;SDS011;8255;49.560;8.244;2022-12-07T14:56:56;3.87;;;3.53;;
16294;SDS011;8255;49.560;8.244;2022-12-07T14:59:23;3.77;;;3.30;;
16294;SDS011;8255;49.560;8.244;2022-12-07T15:01:49;4.77;;;4.00;;
16294;SDS011;8255;49.560;8.244;2022-12-07T15:04:16;4.43;;;3.67;;
16294;SDS011;8255;49.560;8.244;2022-12-07T15:06:53;3.87;;;3.47;;
16294;SDS011;8255;49.560;8.244;2022-12-07T15:09:20;5.50;;;4.10;;
16294;SDS011;8255;49.560;8.244;2022-12-07T15:11:46;6.73;;;4.70;;
16294;SDS011;8255;49.560;8.244;2022-12-07T15:14:14;4.93;;;4.07;;
16294;SDS011;8255;49.560;8.244;2022-12-07T15:16:40;4.80;;;4.27;;
16294;SDS011;8255;49.560;8.244;2022-12-07T15:19:09;4.87;;;4.37;;
16294;SDS011;8255;49.560;8.244;2022-12-07T15:21:36;5.37;;;4.30;;
16294;SDS011;8255;49.560;8.244;2022-12-07T15:24:03;5.33;;;4.00;;
16294;SDS011;8255;49.560;8.244;2022-12-07T15:26:29;6.10;;;5.30;;
16294;SDS011;8255;49.560;8.244;2022-12-07T15:28:56;8.97;;;4.80;;
16294;SDS011;8255;49.560;8.244;2022-12-07T15:31:24;4.40;;;4.00;;
16294;SDS011;8255;49.560;8.244;2022-12-07T15:33:50;5.53;;;4.10;;
16294;SDS011;8255;49.560;8.244;2022-12-07T15:36:18;6.50;;;4.83;;
16294;SDS011;8255;49.560;8.244;2022-12-07T15:38:44;6.53;;;4.33;;
16294;SDS011;8255;49.560;8.244;2022-12-07T15:41:11;6.50;;;5.90;;
16294;SDS011;8255;49.560;8.244;2022-12-07T15:43:37;5.53;;;4.93;;